Terminal Aerodrome Forecast
Issued by NWS Duluth, MN

Home | Current Version | Previous Version | Text Only | Print | Product List | Glossary On
Versions: 1 2 3 4 5 6 7 8 9 10 11 12 13 14 15 16
000
FTUS43 KDLH 240500
TAFINL
TAF
KINL 240536Z 2406/2506 12008KT P6SM -RA OVC050
      TEMPO 2406/2408 6SM -RA BR BKN020
     FM241000 12011KT 5SM -RA BR OVC015
     FM242000 10009KT 3SM -RA BR OVC007
     FM242200 10007KT 2SM -RASN BR OVC007
     FM250300 05005KT 3SM -SNRA BR OVC006=

USA.gov is the U.S. government's official web portal to all federal, state and local government web resources and services.